sensor_id;sensor_type;location;lat;lon;timestamp;temperature;humidity
851;DHT22;412;51.400;7.480;2023-03-11T00:00:06;5.60;99.90
851;DHT22;412;51.400;7.480;2023-03-11T00:02:38;5.60;99.90
851;DHT22;412;51.400;7.480;2023-03-11T00:05:04;5.60;99.90
851;DHT22;412;51.400;7.480;2023-03-11T00:07:29;5.60;99.90
851;DHT22;412;51.400;7.480;2023-03-11T00:09:55;5.50;99.90
851;DHT22;412;51.400;7.480;2023-03-11T00:12:21;5.50;99.90
851;DHT22;412;51.400;7.480;2023-03-11T00:14:46;5.50;99.90
851;DHT22;412;51.400;7.480;2023-03-11T00:17:12;5.40;99.90
851;DHT22;412;51.400;7.480;2023-03-11T00:19:38;5.60;99.90
851;DHT22;412;51.400;7.480;2023-03-11T00:22:03;5.50;99.90
851;DHT22;412;51.400;7.480;2023-03-11T00:24:29;5.40;99.90
851;DHT22;412;51.400;7.480;2023-03-11T00:26:55;5.40;99.90
851;DHT22;412;51.400;7.480;2023-03-11T00:29:20;5.30;99.90
851;DHT22;412;51.400;7.480;2023-03-11T00:31:46;5.30;99.90
851;DHT22;412;51.400;7.480;2023-03-11T00:34:12;5.20;99.90
851;DHT22;412;51.400;7.480;2023-03-11T00:36:37;5.30;99.90
851;DHT22;412;51.400;7.480;2023-03-11T00:39:04;5.20;99.90
851;DHT22;412;51.400;7.480;2023-03-11T00:41:35;5.30;99.90
851;DHT22;412;51.400;7.480;2023-03-11T00:44:00;5.20;99.90
851;DHT22;412;51.400;7.480;2023-03-11T00:46:26;5.30;99.90
851;DHT22;412;51.400;7.480;2023-03-11T00:48:54;5.30;99.90
851;DHT22;412;51.400;7.480;2023-03-11T00:51:20;5.30;99.90
851;DHT22;412;51.400;7.480;2023-03-11T00:53:45;5.40;99.90
851;DHT22;412;51.400;7.480;2023-03-11T00:56:13;5.40;99.90
851;DHT22;412;51.400;7.480;2023-03-11T00:58:39;5.40;99.90
851;DHT22;412;51.400;7.480;2023-03-11T01:01:10;5.30;99.90
851;DHT22;412;51.400;7.480;2023-03-11T01:03:37;5.40;99.90
851;DHT22;412;51.400;7.480;2023-03-11T01:06:04;5.40;99.90
851;DHT22;412;51.400;7.480;2023-03-11T01:08:30;5.40;99.90
851;DHT22;412;51.400;7.480;2023-03-11T01:10:56;5.50;99.90
851;DHT22;412;51.400;7.480;2023-03-11T01:13:22;5.60;99.90
851;DHT22;412;51.400;7.480;2023-03-11T01:15:48;5.60;99.90
851;DHT22;412;51.400;7.480;2023-03-11T01:18:14;5.60;99.90
851;DHT22;412;51.400;7.480;2023-03-11T01:20:40;5.50;99.90
851;DHT22;412;51.400;7.480;2023-03-11T01:23:07;5.50;99.90
851;DHT22;412;51.400;7.480;2023-03-11T01:25:33;5.60;99.90
851;DHT22;412;51.400;7.480;2023-03-11T01:27:59;5.60;99.90
851;DHT22;412;51.400;7.480;2023-03-11T01:30:26;5.60;99.90
851;DHT22;412;51.400;7.480;2023-03-11T01:32:53;5.60;99.90
851;DHT22;412;51.400;7.480;2023-03-11T01:35:22;5.40;99.90
851;DHT22;412;51.400;7.480;2023-03-11T01:37:48;5.50;99.90
851;DHT22;412;51.400;7.480;2023-03-11T01:40:30;5.40;99.90
851;DHT22;412;51.400;7.480;2023-03-11T01:42:57;5.50;99.90
851;DHT22;412;51.400;7.480;2023-03-11T01:48:11;5.30;99.90
851;DHT22;412;51.400;7.480;2023-03-11T01:50:43;6.00;99.90
851;DHT22;412;51.400;7.480;2023-03-11T01:53:10;5.40;99.90
851;DHT22;412;51.400;7.480;2023-03-11T01:55:36;5.50;99.90
851;DHT22;412;51.400;7.480;2023-03-11T01:58:06;5.40;99.90
851;DHT22;412;51.400;7.480;2023-03-11T02:00:34;5.50;99.90
851;DHT22;412;51.400;7.480;2023-03-11T02:03:05;5.60;99.90
851;DHT22;412;51.400;7.480;2023-03-11T02:05:31;5.60;99.90
851;DHT22;412;51.400;7.480;2023-03-11T02:07:58;5.60;99.90
851;DHT22;412;51.400;7.480;2023-03-11T02:10:24;5.60;99.90
851;DHT22;412;51.400;7.480;2023-03-11T02:12:51;5.60;99.90
851;DHT22;412;51.400;7.480;2023-03-11T02:15:17;5.60;99.90
851;DHT22;412;51.400;7.480;2023-03-11T02:17:43;5.70;99.90
851;DHT22;412;51.400;7.480;2023-03-11T02:20:22;5.60;99.90
851;DHT22;412;51.400;7.480;2023-03-11T02:22:51;5.60;99.90
851;DHT22;412;51.400;7.480;2023-03-11T02:27:57;5.60;99.90
851;DHT22;412;51.400;7.480;2023-03-11T02:30:25;5.60;99.90
851;DHT22;412;51.400;7.480;2023-03-11T02:32:52;5.60;99.90
851;DHT22;412;51.400;7.480;2023-03-11T02:35:19;5.60;99.90
851;DHT22;412;51.400;7.480;2023-03-11T02:37:50;5.60;99.90
851;DHT22;412;51.400;7.480;2023-03-11T02:42:50;5.70;99.90
851;DHT22;412;51.400;7.480;2023-03-11T02:45:17;5.70;99.90
851;DHT22;412;51.400;7.480;2023-03-11T02:47:44;5.70;99.90
851;DHT22;412;51.400;7.480;2023-03-11T02:50:13;5.80;99.90
851;DHT22;412;51.400;7.480;2023-03-11T02:52:40;5.70;99.90
851;DHT22;412;51.400;7.480;2023-03-11T02:55:06;5.80;99.90
851;DHT22;412;51.400;7.480;2023-03-11T02:57:32;5.70;99.90
851;DHT22;412;51.400;7.480;2023-03-11T02:59:58;5.70;99.90
851;DHT22;412;51.400;7.480;2023-03-11T03:02:24;5.70;99.90
851;DHT22;412;51.400;7.480;2023-03-11T03:04:50;5.70;99.90
851;DHT22;412;51.400;7.480;2023-03-11T03:07:16;5.70;99.90
851;DHT22;412;51.400;7.480;2023-03-11T03:09:41;5.70;99.90
851;DHT22;412;51.400;7.480;2023-03-11T03:12:07;5.70;99.90
851;DHT22;412;51.400;7.480;2023-03-11T03:14:33;5.60;99.90
851;DHT22;412;51.400;7.480;2023-03-11T03:16:59;5.60;99.90
851;DHT22;412;51.400;7.480;2023-03-11T03:19:24;5.60;99.90
851;DHT22;412;51.400;7.480;2023-03-11T03:21:50;5.60;99.90
851;DHT22;412;51.400;7.480;2023-03-11T03:24:16;5.60;99.90
851;DHT22;412;51.400;7.480;2023-03-11T03:26:42;5.60;99.90
851;DHT22;412;51.400;7.480;2023-03-11T03:29:07;5.70;99.90
851;DHT22;412;51.400;7.480;2023-03-11T03:31:33;5.70;99.90
851;DHT22;412;51.400;7.480;2023-03-11T03:33:59;5.70;99.90
851;DHT22;412;51.400;7.480;2023-03-11T03:36:24;5.70;99.90
851;DHT22;412;51.400;7.480;2023-03-11T03:38:56;5.70;99.90
851;DHT22;412;51.400;7.480;2023-03-11T03:41:22;5.60;99.90
851;DHT22;412;51.400;7.480;2023-03-11T03:43:48;5.60;99.90
851;DHT22;412;51.400;7.480;2023-03-11T03:46:14;5.50;99.90
851;DHT22;412;51.400;7.480;2023-03-11T03:48:40;5.60;99.90
851;DHT22;412;51.400;7.480;2023-03-11T03:51:08;5.50;99.90
851;DHT22;412;51.400;7.480;2023-03-11T03:53:34;5.50;99.90
851;DHT22;412;51.400;7.480;2023-03-11T03:56:05;5.40;99.90
851;DHT22;412;51.400;7.480;2023-03-11T03:58:31;5.40;99.90
851;DHT22;412;51.400;7.480;2023-03-11T04:00:58;5.50;99.90
851;DHT22;412;51.400;7.480;2023-03-11T04:03:25;5.50;99.90
851;DHT22;412;51.400;7.480;2023-03-11T04:05:51;5.50;99.90
851;DHT22;412;51.400;7.480;2023-03-11T04:08:17;5.50;99.90
851;DHT22;412;51.400;7.480;2023-03-11T04:10:43;5.60;99.90
851;DHT22;412;51.400;7.480;2023-03-11T04:13:10;5.60;99.90
851;DHT22;412;51.400;7.480;2023-03-11T04:15:38;5.50;99.90
851;DHT22;412;51.400;7.480;2023-03-11T04:18:04;5.60;99.90
851;DHT22;412;51.400;7.480;2023-03-11T04:20:30;5.60;99.90
851;DHT22;412;51.400;7.480;2023-03-11T04:22:56;5.60;99.90
851;DHT22;412;51.400;7.480;2023-03-11T04:25:21;5.60;99.90
851;DHT22;412;51.400;7.480;2023-03-11T04:27:47;5.60;99.90
851;DHT22;412;51.400;7.480;2023-03-11T04:30:14;5.60;99.90
851;DHT22;412;51.400;7.480;2023-03-11T04:32:40;5.60;99.90
851;DHT22;412;51.400;7.480;2023-03-11T04:35:06;5.70;99.90
851;DHT22;412;51.400;7.480;2023-03-11T04:37:32;5.70;99.90
851;DHT22;412;51.400;7.480;2023-03-11T04:40:00;5.70;99.90
851;DHT22;412;51.400;7.480;2023-03-11T04:42:26;5.70;99.90
851;DHT22;412;51.400;7.480;2023-03-11T04:44:52;5.70;99.90
851;DHT22;412;51.400;7.480;2023-03-11T04:47:18;5.70;99.90
851;DHT22;412;51.400;7.480;2023-03-11T04:49:44;5.70;99.90
851;DHT22;412;51.400;7.480;2023-03-11T04:52:10;5.70;99.90
851;DHT22;412;51.400;7.480;2023-03-11T04:54:35;5.70;99.90
851;DHT22;412;51.400;7.480;2023-03-11T04:57:01;5.70;99.90
851;DHT22;412;51.400;7.480;2023-03-11T04:59:27;5.70;99.90
851;DHT22;412;51.400;7.480;2023-03-11T05:01:52;5.70;99.90
851;DHT22;412;51.400;7.480;2023-03-11T05:04:18;5.70;99.90
851;DHT22;412;51.400;7.480;2023-03-11T05:06:44;5.70;99.90
851;DHT22;412;51.400;7.480;2023-03-11T05:09:10;5.60;99.90
851;DHT22;412;51.400;7.480;2023-03-11T05:11:35;5.60;99.90
851;DHT22;412;51.400;7.480;2023-03-11T05:14:03;5.60;99.90
851;DHT22;412;51.400;7.480;2023-03-11T05:16:29;5.60;99.90
851;DHT22;412;51.400;7.480;2023-03-11T05:18:55;5.60;99.90
851;DHT22;412;51.400;7.480;2023-03-11T05:21:20;5.60;99.90
851;DHT22;412;51.400;7.480;2023-03-11T05:23:46;5.50;99.90
851;DHT22;412;51.400;7.480;2023-03-11T05:26:12;5.50;99.90
851;DHT22;412;51.400;7.480;2023-03-11T05:28:37;5.60;99.90
851;DHT22;412;51.400;7.480;2023-03-11T05:31:09;5.60;99.90
851;DHT22;412;51.400;7.480;2023-03-11T05:33:35;5.60;99.90
851;DHT22;412;51.400;7.480;2023-03-11T05:36:05;5.60;99.90
851;DHT22;412;51.400;7.480;2023-03-11T05:38:31;5.60;99.90
851;DHT22;412;51.400;7.480;2023-03-11T05:40:57;5.60;99.90
851;DHT22;412;51.400;7.480;2023-03-11T05:43:23;5.60;99.90
851;DHT22;412;51.400;7.480;2023-03-11T05:45:48;5.70;99.90
851;DHT22;412;51.400;7.480;2023-03-11T05:48:14;5.60;99.90
851;DHT22;412;51.400;7.480;2023-03-11T05:50:40;5.60;99.90
851;DHT22;412;51.400;7.480;2023-03-11T05:53:05;5.70;99.90
851;DHT22;412;51.400;7.480;2023-03-11T05:55:31;5.60;99.90
851;DHT22;412;51.400;7.480;2023-03-11T05:57:57;5.60;99.90
851;DHT22;412;51.400;7.480;2023-03-11T06:00:22;5.60;99.90
851;DHT22;412;51.400;7.480;2023-03-11T06:02:48;5.60;99.90
851;DHT22;412;51.400;7.480;2023-03-11T06:05:14;5.60;99.90
851;DHT22;412;51.400;7.480;2023-03-11T06:07:39;5.60;99.90
851;DHT22;412;51.400;7.480;2023-03-11T06:10:06;5.60;99.90
851;DHT22;412;51.400;7.480;2023-03-11T06:12:33;5.50;99.90
851;DHT22;412;51.400;7.480;2023-03-11T06:14:59;5.50;99.90
851;DHT22;412;51.400;7.480;2023-03-11T06:17:25;5.60;99.90
851;DHT22;412;51.400;7.480;2023-03-11T06:19:51;5.50;99.90
851;DHT22;412;51.400;7.480;2023-03-11T06:22:16;5.50;99.90
851;DHT22;412;51.400;7.480;2023-03-11T06:24:42;5.50;99.90
851;DHT22;412;51.400;7.480;2023-03-11T06:27:08;5.50;99.90
851;DHT22;412;51.400;7.480;2023-03-11T06:29:35;5.60;99.90
851;DHT22;412;51.400;7.480;2023-03-11T06:32:01;5.60;99.90
851;DHT22;412;51.400;7.480;2023-03-11T06:34:27;5.60;99.90
851;DHT22;412;51.400;7.480;2023-03-11T06:36:52;5.60;99.90
851;DHT22;412;51.400;7.480;2023-03-11T06:39:19;5.60;99.90
851;DHT22;412;51.400;7.480;2023-03-11T06:41:45;5.60;99.90
851;DHT22;412;51.400;7.480;2023-03-11T06:44:11;5.60;99.90
851;DHT22;412;51.400;7.480;2023-03-11T06:46:36;5.60;99.90
851;DHT22;412;51.400;7.480;2023-03-11T06:49:03;5.60;99.90
851;DHT22;412;51.400;7.480;2023-03-11T06:51:28;5.60;99.90
851;DHT22;412;51.400;7.480;2023-03-11T06:53:54;5.70;99.90
851;DHT22;412;51.400;7.480;2023-03-11T06:56:21;5.60;99.90
851;DHT22;412;51.400;7.480;2023-03-11T06:58:47;5.60;99.90
851;DHT22;412;51.400;7.480;2023-03-11T07:01:16;5.60;99.90
851;DHT22;412;51.400;7.480;2023-03-11T07:03:42;5.70;99.90
851;DHT22;412;51.400;7.480;2023-03-11T07:06:13;5.70;99.90
851;DHT22;412;51.400;7.480;2023-03-11T07:08:38;5.70;99.90
851;DHT22;412;51.400;7.480;2023-03-11T07:11:08;5.70;99.90
851;DHT22;412;51.400;7.480;2023-03-11T07:13:35;5.80;99.90
851;DHT22;412;51.400;7.480;2023-03-11T07:16:07;5.80;99.90
851;DHT22;412;51.400;7.480;2023-03-11T07:18:34;5.80;99.90
851;DHT22;412;51.400;7.480;2023-03-11T07:21:01;5.80;99.90
851;DHT22;412;51.400;7.480;2023-03-11T07:23:27;5.90;99.90
851;DHT22;412;51.400;7.480;2023-03-11T07:25:53;5.90;99.90
851;DHT22;412;51.400;7.480;2023-03-11T07:28:23;5.90;99.90
851;DHT22;412;51.400;7.480;2023-03-11T07:30:50;5.90;99.90
851;DHT22;412;51.400;7.480;2023-03-11T07:33:16;5.90;99.90
851;DHT22;412;51.400;7.480;2023-03-11T07:35:43;5.90;99.90
851;DHT22;412;51.400;7.480;2023-03-11T07:38:09;6.00;99.90
851;DHT22;412;51.400;7.480;2023-03-11T07:40:35;6.00;99.90
851;DHT22;412;51.400;7.480;2023-03-11T07:43:01;6.00;99.90
851;DHT22;412;51.400;7.480;2023-03-11T07:45:26;6.00;99.90
851;DHT22;412;51.400;7.480;2023-03-11T07:47:52;6.00;99.90
851;DHT22;412;51.400;7.480;2023-03-11T07:50:18;6.10;99.90
851;DHT22;412;51.400;7.480;2023-03-11T07:52:46;6.10;99.90
851;DHT22;412;51.400;7.480;2023-03-11T07:55:12;6.20;99.90
851;DHT22;412;51.400;7.480;2023-03-11T07:57:38;6.40;99.90
851;DHT22;412;51.400;7.480;2023-03-11T08:00:04;7.20;99.90
851;DHT22;412;51.400;7.480;2023-03-11T08:02:30;8.00;99.90
851;DHT22;412;51.400;7.480;2023-03-11T08:04:55;8.70;99.90
851;DHT22;412;51.400;7.480;2023-03-11T08:07:21;9.40;99.90
851;DHT22;412;51.400;7.480;2023-03-11T08:09:47;9.90;99.90
851;DHT22;412;51.400;7.480;2023-03-11T08:12:14;10.40;99.90
851;DHT22;412;51.400;7.480;2023-03-11T08:14:39;10.80;99.60
851;DHT22;412;51.400;7.480;2023-03-11T08:17:05;11.10;99.10
851;DHT22;412;51.400;7.480;2023-03-11T08:19:31;11.50;95.00
851;DHT22;412;51.400;7.480;2023-03-11T08:21:56;11.70;93.30
851;DHT22;412;51.400;7.480;2023-03-11T08:24:22;12.10;93.70
851;DHT22;412;51.400;7.480;2023-03-11T08:26:48;12.30;91.70
851;DHT22;412;51.400;7.480;2023-03-11T08:29:14;12.50;89.20
851;DHT22;412;51.400;7.480;2023-03-11T08:31:39;12.60;86.60
851;DHT22;412;51.400;7.480;2023-03-11T08:34:07;12.80;86.40
851;DHT22;412;51.400;7.480;2023-03-11T08:36:33;12.90;84.60
851;DHT22;412;51.400;7.480;2023-03-11T08:39:00;13.10;83.90
851;DHT22;412;51.400;7.480;2023-03-11T08:41:26;13.30;81.50
851;DHT22;412;51.400;7.480;2023-03-11T08:43:52;13.30;79.10
851;DHT22;412;51.400;7.480;2023-03-11T08:46:26;13.50;80.00
851;DHT22;412;51.400;7.480;2023-03-11T08:48:53;13.50;83.20
851;DHT22;412;51.400;7.480;2023-03-11T08:51:18;13.60;80.60
851;DHT22;412;51.400;7.480;2023-03-11T08:53:44;13.80;78.30
851;DHT22;412;51.400;7.480;2023-03-11T08:56:10;13.90;79.70
851;DHT22;412;51.400;7.480;2023-03-11T08:58:36;14.10;79.40
851;DHT22;412;51.400;7.480;2023-03-11T09:01:02;14.20;75.30
851;DHT22;412;51.400;7.480;2023-03-11T09:03:31;14.30;75.60
851;DHT22;412;51.400;7.480;2023-03-11T09:05:58;14.40;75.90
851;DHT22;412;51.400;7.480;2023-03-11T09:08:25;14.50;73.90
851;DHT22;412;51.400;7.480;2023-03-11T09:10:50;14.60;72.00
851;DHT22;412;51.400;7.480;2023-03-11T09:13:16;14.80;72.00
851;DHT22;412;51.400;7.480;2023-03-11T09:15:42;14.90;73.00
851;DHT22;412;51.400;7.480;2023-03-11T09:18:11;14.90;72.00
851;DHT22;412;51.400;7.480;2023-03-11T09:20:38;15.10;70.70
851;DHT22;412;51.400;7.480;2023-03-11T09:23:05;15.20;67.60
851;DHT22;412;51.400;7.480;2023-03-11T09:25:31;15.30;69.00
851;DHT22;412;51.400;7.480;2023-03-11T09:27:57;15.30;64.50
851;DHT22;412;51.400;7.480;2023-03-11T09:30:22;14.90;60.20
851;DHT22;412;51.400;7.480;2023-03-11T09:32:48;14.20;61.80
851;DHT22;412;51.400;7.480;2023-03-11T09:35:14;13.50;62.60
851;DHT22;412;51.400;7.480;2023-03-11T09:37:40;12.80;65.60
851;DHT22;412;51.400;7.480;2023-03-11T09:40:06;12.20;62.80
851;DHT22;412;51.400;7.480;2023-03-11T09:45:24;11.50;68.20
851;DHT22;412;51.400;7.480;2023-03-11T09:50:57;10.90;68.30
851;DHT22;412;51.400;7.480;2023-03-11T09:53:42;10.60;69.80
851;DHT22;412;51.400;7.480;2023-03-11T09:56:14;10.30;68.10
851;DHT22;412;51.400;7.480;2023-03-11T10:01:22;9.90;72.10
851;DHT22;412;51.400;7.480;2023-03-11T10:03:51;9.80;74.50
851;DHT22;412;51.400;7.480;2023-03-11T10:06:28;9.80;74.70
851;DHT22;412;51.400;7.480;2023-03-11T10:11:55;10.00;76.40
851;DHT22;412;51.400;7.480;2023-03-11T10:18:04;9.80;71.90
851;DHT22;412;51.400;7.480;2023-03-11T10:20:57;9.80;73.10
851;DHT22;412;51.400;7.480;2023-03-11T10:29:18;10.30;75.80
851;DHT22;412;51.400;7.480;2023-03-11T10:31:53;10.60;74.10
851;DHT22;412;51.400;7.480;2023-03-11T10:34:49;10.60;73.60
851;DHT22;412;51.400;7.480;2023-03-11T10:37:23;10.80;71.30
851;DHT22;412;51.400;7.480;2023-03-11T10:39:50;10.70;69.00
851;DHT22;412;51.400;7.480;2023-03-11T10:42:27;10.70;69.60
851;DHT22;412;51.400;7.480;2023-03-11T10:44:54;10.70;67.40
851;DHT22;412;51.400;7.480;2023-03-11T10:47:23;10.60;67.80
851;DHT22;412;51.400;7.480;2023-03-11T10:49:50;10.40;64.80
851;DHT22;412;51.400;7.480;2023-03-11T10:52:17;10.40;66.00
851;DHT22;412;51.400;7.480;2023-03-11T10:54:45;10.30;65.50
851;DHT22;412;51.400;7.480;2023-03-11T10:57:30;10.30;65.20
851;DHT22;412;51.400;7.480;2023-03-11T11:00:03;10.30;67.60
851;DHT22;412;51.400;7.480;2023-03-11T11:02:52;10.40;67.10
851;DHT22;412;51.400;7.480;2023-03-11T11:07:48;10.70;67.60
851;DHT22;412;51.400;7.480;2023-03-11T11:10:21;10.90;70.80
851;DHT22;412;51.400;7.480;2023-03-11T11:15:26;10.80;66.80
851;DHT22;412;51.400;7.480;2023-03-11T11:17:54;10.80;66.20
851;DHT22;412;51.400;7.480;2023-03-11T11:20:22;10.60;67.00
851;DHT22;412;51.400;7.480;2023-03-11T11:22:52;10.70;65.00
851;DHT22;412;51.400;7.480;2023-03-11T11:25:33;10.90;68.30
851;DHT22;412;51.400;7.480;2023-03-11T11:30:52;11.10;63.20
851;DHT22;412;51.400;7.480;2023-03-11T11:33:51;11.20;61.80
851;DHT22;412;51.400;7.480;2023-03-11T11:36:18;11.40;62.70
851;DHT22;412;51.400;7.480;2023-03-11T11:38:44;11.50;62.00
851;DHT22;412;51.400;7.480;2023-03-11T11:41:16;11.70;61.10
851;DHT22;412;51.400;7.480;2023-03-11T11:43:55;11.80;59.60
851;DHT22;412;51.400;7.480;2023-03-11T11:46:27;11.80;57.90
851;DHT22;412;51.400;7.480;2023-03-11T11:51:47;12.20;58.00
851;DHT22;412;51.400;7.480;2023-03-11T11:54:36;12.40;56.20
851;DHT22;412;51.400;7.480;2023-03-11T11:57:11;12.40;56.80
851;DHT22;412;51.400;7.480;2023-03-11T11:59:38;12.50;56.50
851;DHT22;412;51.400;7.480;2023-03-11T12:18:33;12.80;53.40
851;DHT22;412;51.400;7.480;2023-03-11T12:26:27;12.70;56.40
851;DHT22;412;51.400;7.480;2023-03-11T12:29:10;12.60;58.40
851;DHT22;412;51.400;7.480;2023-03-11T12:31:38;12.70;56.50
851;DHT22;412;51.400;7.480;2023-03-11T12:34:09;12.70;56.10
851;DHT22;412;51.400;7.480;2023-03-11T12:36:41;12.70;55.10
851;DHT22;412;51.400;7.480;2023-03-11T12:41:45;12.60;55.00
851;DHT22;412;51.400;7.480;2023-03-11T12:44:26;12.60;55.20
851;DHT22;412;51.400;7.480;2023-03-11T12:49:27;12.60;55.70
851;DHT22;412;51.400;7.480;2023-03-11T12:54:45;12.40;56.20
851;DHT22;412;51.400;7.480;2023-03-11T13:00:10;12.30;57.30
851;DHT22;412;51.400;7.480;2023-03-11T13:06:04;12.20;56.00
851;DHT22;412;51.400;7.480;2023-03-11T13:08:51;12.20;56.00
851;DHT22;412;51.400;7.480;2023-03-11T13:16:41;11.80;55.40
851;DHT22;412;51.400;7.480;2023-03-11T13:21:54;11.60;55.10
851;DHT22;412;51.400;7.480;2023-03-11T13:29:57;11.50;56.80
851;DHT22;412;51.400;7.480;2023-03-11T13:33:13;11.50;56.50
851;DHT22;412;51.400;7.480;2023-03-11T13:35:59;11.50;55.00
851;DHT22;412;51.400;7.480;2023-03-11T13:41:32;11.70;55.60
851;DHT22;412;51.400;7.480;2023-03-11T13:52:33;12.30;53.90
851;DHT22;412;51.400;7.480;2023-03-11T13:55:14;12.50;53.70
851;DHT22;412;51.400;7.480;2023-03-11T13:57:52;12.50;53.10
851;DHT22;412;51.400;7.480;2023-03-11T14:00:21;12.50;51.30
851;DHT22;412;51.400;7.480;2023-03-11T14:02:51;12.30;52.20
851;DHT22;412;51.400;7.480;2023-03-11T14:05:29;12.30;53.30
851;DHT22;412;51.400;7.480;2023-03-11T14:08:11;12.30;53.50
851;DHT22;412;51.400;7.480;2023-03-11T14:10:37;12.10;53.60
851;DHT22;412;51.400;7.480;2023-03-11T14:13:26;12.20;55.40
851;DHT22;412;51.400;7.480;2023-03-11T14:18:28;12.20;53.20
851;DHT22;412;51.400;7.480;2023-03-11T14:20:56;12.20;53.40
851;DHT22;412;51.400;7.480;2023-03-11T14:23:29;12.20;54.20
851;DHT22;412;51.400;7.480;2023-03-11T14:26:11;12.10;53.60
851;DHT22;412;51.400;7.480;2023-03-11T14:28:40;12.20;53.60
851;DHT22;412;51.400;7.480;2023-03-11T14:31:18;12.20;53.40
851;DHT22;412;51.400;7.480;2023-03-11T14:33:56;12.30;52.60
851;DHT22;412;51.400;7.480;2023-03-11T14:36:23;12.30;52.50
851;DHT22;412;51.400;7.480;2023-03-11T14:38:48;12.40;52.10
851;DHT22;412;51.400;7.480;2023-03-11T14:41:14;12.50;52.70
851;DHT22;412;51.400;7.480;2023-03-11T14:43:43;12.40;52.80
851;DHT22;412;51.400;7.480;2023-03-11T14:46:17;12.40;52.50
851;DHT22;412;51.400;7.480;2023-03-11T14:48:44;12.40;51.20
851;DHT22;412;51.400;7.480;2023-03-11T14:51:18;12.40;51.80
851;DHT22;412;51.400;7.480;2023-03-11T14:53:54;12.30;51.60
851;DHT22;412;51.400;7.480;2023-03-11T14:56:24;12.40;50.80
851;DHT22;412;51.400;7.480;2023-03-11T14:59:14;12.40;51.20
851;DHT22;412;51.400;7.480;2023-03-11T15:01:42;12.20;50.90
851;DHT22;412;51.400;7.480;2023-03-11T15:04:12;12.10;51.50
851;DHT22;412;51.400;7.480;2023-03-11T15:06:43;12.10;51.80
851;DHT22;412;51.400;7.480;2023-03-11T15:11:56;12.00;52.30
851;DHT22;412;51.400;7.480;2023-03-11T15:14:32;11.80;52.50
851;DHT22;412;51.400;7.480;2023-03-11T15:17:18;11.70;53.10
851;DHT22;412;51.400;7.480;2023-03-11T15:19:51;11.70;53.50
851;DHT22;412;51.400;7.480;2023-03-11T15:22:34;11.70;53.30
851;DHT22;412;51.400;7.480;2023-03-11T15:25:02;11.60;53.30
851;DHT22;412;51.400;7.480;2023-03-11T15:29:58;11.40;51.20
851;DHT22;412;51.400;7.480;2023-03-11T15:35:21;11.30;52.10
851;DHT22;412;51.400;7.480;2023-03-11T15:37:47;11.20;51.80
851;DHT22;412;51.400;7.480;2023-03-11T15:40:27;11.10;52.20
851;DHT22;412;51.400;7.480;2023-03-11T15:45:45;11.00;52.80
851;DHT22;412;51.400;7.480;2023-03-11T15:48:12;11.10;53.50
851;DHT22;412;51.400;7.480;2023-03-11T15:53:14;10.90;52.80
851;DHT22;412;51.400;7.480;2023-03-11T15:55:40;10.80;51.90
851;DHT22;412;51.400;7.480;2023-03-11T15:58:07;10.80;51.90
851;DHT22;412;51.400;7.480;2023-03-11T16:00:35;10.80;53.30
851;DHT22;412;51.400;7.480;2023-03-11T16:03:01;10.70;52.50
851;DHT22;412;51.400;7.480;2023-03-11T16:05:27;10.70;53.30
851;DHT22;412;51.400;7.480;2023-03-11T16:07:53;10.70;53.20
851;DHT22;412;51.400;7.480;2023-03-11T16:10:21;10.70;53.70
851;DHT22;412;51.400;7.480;2023-03-11T16:12:49;10.50;53.30
851;DHT22;412;51.400;7.480;2023-03-11T16:15:35;10.40;53.90
851;DHT22;412;51.400;7.480;2023-03-11T16:18:04;10.50;53.90
851;DHT22;412;51.400;7.480;2023-03-11T16:20:44;10.30;54.20
851;DHT22;412;51.400;7.480;2023-03-11T16:23:23;10.30;55.10
851;DHT22;412;51.400;7.480;2023-03-11T16:25:49;10.30;54.50
851;DHT22;412;51.400;7.480;2023-03-11T16:28:16;10.30;54.50
851;DHT22;412;51.400;7.480;2023-03-11T16:30:42;10.30;54.20
851;DHT22;412;51.400;7.480;2023-03-11T16:33:08;10.40;55.10
851;DHT22;412;51.400;7.480;2023-03-11T16:35:33;10.30;54.20
851;DHT22;412;51.400;7.480;2023-03-11T16:38:00;10.30;54.10
851;DHT22;412;51.400;7.480;2023-03-11T16:40:27;10.20;55.00
851;DHT22;412;51.400;7.480;2023-03-11T16:43:02;10.20;55.70
851;DHT22;412;51.400;7.480;2023-03-11T16:45:28;10.10;55.90
851;DHT22;412;51.400;7.480;2023-03-11T16:47:54;10.10;57.00
851;DHT22;412;51.400;7.480;2023-03-11T16:50:20;10.00;56.20
851;DHT22;412;51.400;7.480;2023-03-11T16:52:49;10.00;56.80
851;DHT22;412;51.400;7.480;2023-03-11T16:55:15;9.90;56.40
851;DHT22;412;51.400;7.480;2023-03-11T16:57:41;9.80;56.80
851;DHT22;412;51.400;7.480;2023-03-11T17:00:07;9.80;57.30
851;DHT22;412;51.400;7.480;2023-03-11T17:02:35;9.70;57.30
851;DHT22;412;51.400;7.480;2023-03-11T17:05:01;9.70;57.60
851;DHT22;412;51.400;7.480;2023-03-11T17:07:27;9.70;59.20
851;DHT22;412;51.400;7.480;2023-03-11T17:09:53;9.70;61.40
851;DHT22;412;51.400;7.480;2023-03-11T17:12:19;9.60;60.30
851;DHT22;412;51.400;7.480;2023-03-11T17:14:45;9.60;62.70
851;DHT22;412;51.400;7.480;2023-03-11T17:17:11;9.50;61.30
851;DHT22;412;51.400;7.480;2023-03-11T17:19:37;9.50;60.00
851;DHT22;412;51.400;7.480;2023-03-11T17:22:03;9.40;58.90
851;DHT22;412;51.400;7.480;2023-03-11T17:24:29;9.40;58.30
851;DHT22;412;51.400;7.480;2023-03-11T17:26:55;9.40;59.30
851;DHT22;412;51.400;7.480;2023-03-11T17:29:21;9.40;59.20
851;DHT22;412;51.400;7.480;2023-03-11T17:31:46;9.30;59.30
851;DHT22;412;51.400;7.480;2023-03-11T17:34:12;9.30;59.60
851;DHT22;412;51.400;7.480;2023-03-11T17:36:39;9.20;61.20
851;DHT22;412;51.400;7.480;2023-03-11T17:39:05;9.20;62.10
851;DHT22;412;51.400;7.480;2023-03-11T17:41:31;9.10;63.20
851;DHT22;412;51.400;7.480;2023-03-11T17:43:57;9.10;65.20
851;DHT22;412;51.400;7.480;2023-03-11T17:46:23;9.00;64.40
851;DHT22;412;51.400;7.480;2023-03-11T17:48:49;8.90;67.10
851;DHT22;412;51.400;7.480;2023-03-11T17:51:18;8.90;67.60
851;DHT22;412;51.400;7.480;2023-03-11T17:53:45;8.80;66.90
851;DHT22;412;51.400;7.480;2023-03-11T17:56:18;8.80;68.60
851;DHT22;412;51.400;7.480;2023-03-11T17:58:45;8.70;68.90
851;DHT22;412;51.400;7.480;2023-03-11T18:01:16;8.70;68.50
851;DHT22;412;51.400;7.480;2023-03-11T18:03:42;8.70;69.40
851;DHT22;412;51.400;7.480;2023-03-11T18:06:08;8.60;69.80
851;DHT22;412;51.400;7.480;2023-03-11T18:08:35;8.60;71.50
851;DHT22;412;51.400;7.480;2023-03-11T18:11:06;8.50;69.50
851;DHT22;412;51.400;7.480;2023-03-11T18:13:34;8.50;70.30
851;DHT22;412;51.400;7.480;2023-03-11T18:16:02;8.50;69.80
851;DHT22;412;51.400;7.480;2023-03-11T18:18:29;8.40;71.00
851;DHT22;412;51.400;7.480;2023-03-11T18:21:03;8.40;71.30
851;DHT22;412;51.400;7.480;2023-03-11T18:23:30;8.30;71.50
851;DHT22;412;51.400;7.480;2023-03-11T18:25:58;8.30;72.20
851;DHT22;412;51.400;7.480;2023-03-11T18:28:25;8.20;71.30
851;DHT22;412;51.400;7.480;2023-03-11T18:30:50;8.20;73.00
851;DHT22;412;51.400;7.480;2023-03-11T18:33:19;8.10;74.50
851;DHT22;412;51.400;7.480;2023-03-11T18:35:45;8.10;72.50
851;DHT22;412;51.400;7.480;2023-03-11T18:38:11;8.00;74.10
851;DHT22;412;51.400;7.480;2023-03-11T18:40:37;8.10;74.80
851;DHT22;412;51.400;7.480;2023-03-11T18:43:03;8.00;74.00
851;DHT22;412;51.400;7.480;2023-03-11T18:45:28;8.00;71.30
851;DHT22;412;51.400;7.480;2023-03-11T18:47:54;8.00;71.70